createdAt,value
2022-12-25T00:03:04.203Z,12.32
2022-12-25T00:06:03.585Z,12.32
2022-12-25T00:09:03.615Z,12.3
2022-12-25T00:11:10.528Z,12.3
2022-12-25T00:14:03.717Z,12.29
2022-12-25T00:17:03.568Z,12.29
2022-12-25T00:19:03.683Z,12.28
2022-12-25T00:22:10.198Z,12.28
2022-12-25T00:24:10.292Z,12.27
2022-12-25T00:27:04.091Z,12.28
2022-12-25T00:30:04.216Z,12.28
2022-12-25T00:33:04.037Z,12.28
2022-12-25T00:36:03.603Z,12.28
2022-12-25T00:39:04.285Z,12.27
2022-12-25T00:42:04.086Z,12.27
2022-12-25T00:45:03.938Z,12.25
2022-12-25T00:47:04.347Z,12.25
2022-12-25T00:50:03.662Z,12.25
2022-12-25T00:53:03.714Z,12.25
2022-12-25T00:56:03.692Z,12.25
2022-12-25T00:59:04.195Z,12.25
2022-12-25T01:03:03.729Z,12.24
2022-12-25T01:05:04.381Z,12.23
2022-12-25T01:08:03.574Z,12.23
2022-12-25T01:11:03.853Z,12.22
2022-12-25T01:14:03.614Z,12.22
2022-12-25T01:17:03.592Z,12.2
2022-12-25T01:20:03.572Z,12.21
2022-12-25T01:22:04.746Z,12.2
2022-12-25T01:25:03.612Z,12.19
2022-12-25T01:28:04.188Z,12.2
2022-12-25T01:30:04.243Z,12.2
2022-12-25T01:33:03.598Z,12.2
2022-12-25T01:35:03.626Z,12.18
2022-12-25T01:37:03.638Z,12.18
2022-12-25T01:40:10.175Z,12.17
2022-12-25T01:42:10.918Z,12.17
2022-12-25T01:45:03.748Z,12.17
2022-12-25T01:47:04.396Z,12.16
2022-12-25T01:51:04.328Z,12.15
2022-12-25T01:54:03.590Z,12.14
2022-12-25T01:57:03.608Z,12.13
2022-12-25T01:59:04.477Z,12.13
2022-12-25T02:02:10.883Z,12.14
2022-12-25T02:06:04.407Z,12.13
2022-12-25T02:10:04.586Z,12.1
2022-12-25T02:12:16.769Z,12.09
2022-12-25T02:16:23.375Z,12.1
2022-12-25T02:19:10.167Z,12.1
2022-12-25T02:21:10.152Z,12.08
2022-12-25T02:24:03.602Z,12.07
2022-12-25T02:26:04.462Z,12.08
2022-12-25T02:31:10.182Z,12.07
2022-12-25T02:33:10.217Z,12.06
2022-12-25T02:36:03.576Z,12.06
2022-12-25T02:39:04.227Z,12.05
2022-12-25T02:42:03.633Z,12.03
2022-12-25T02:44:03.618Z,12.02
2022-12-25T02:46:04.253Z,12.02
2022-12-25T02:49:13.319Z,11.99
2022-12-25T02:51:10.252Z,11.98
2022-12-25T02:54:03.928Z,11.97
2022-12-25T02:57:03.911Z,11.96
2022-12-25T03:00:03.598Z,11.93
2022-12-25T03:02:03.810Z,11.91
2022-12-25T03:05:03.560Z,11.88
2022-12-25T03:07:04.428Z,11.86
2022-12-25T03:10:03.860Z,11.84
2022-12-25T03:13:04.010Z,11.8
2022-12-25T03:17:10.916Z,11.79
2022-12-25T03:21:03.665Z,11.76
2022-12-25T03:23:04.278Z,11.75
2022-12-25T03:27:02.646Z,11.73
2022-12-25T03:29:10.411Z,11.74
2022-12-25T03:32:17.487Z,11.74
2022-12-25T03:35:16.761Z,11.72
2022-12-25T03:38:04.155Z,11.73
2022-12-25T03:42:03.788Z,11.73
2022-12-25T03:44:10.201Z,11.71
2022-12-25T03:47:03.634Z,11.7
2022-12-25T03:49:04.223Z,11.72
2022-12-25T03:52:03.626Z,11.69
2022-12-25T03:54:10.154Z,11.69
2022-12-25T03:56:10.564Z,11.7
2022-12-25T03:59:03.999Z,11.71
2022-12-25T04:01:04.143Z,11.71
2022-12-25T04:04:03.587Z,11.71
2022-12-25T04:06:03.967Z,11.73
2022-12-25T04:09:03.964Z,11.72
2022-12-25T04:11:04.259Z,11.72
2022-12-25T04:14:03.632Z,11.73
2022-12-25T04:17:03.640Z,11.73
2022-12-25T04:19:04.273Z,11.74
2022-12-25T04:22:03.649Z,11.73
2022-12-25T04:24:03.946Z,11.74
2022-12-25T04:27:03.605Z,11.76
2022-12-25T04:29:03.839Z,11.76
2022-12-25T04:32:02.672Z,11.78
2022-12-25T04:34:10.196Z,11.77
2022-12-25T04:37:03.607Z,11.77
2022-12-25T04:39:03.681Z,11.78
2022-12-25T04:42:03.611Z,11.79
2022-12-25T04:44:03.625Z,11.8
2022-12-25T04:46:03.629Z,11.81
2022-12-25T04:48:04.076Z,11.81
2022-12-25T04:50:04.241Z,11.82
2022-12-25T04:52:58.083Z,11.82
2022-12-25T04:55:03.557Z,11.82
2022-12-25T04:57:04.315Z,11.82
2022-12-25T05:00:04.304Z,11.83
2022-12-25T05:04:03.854Z,11.83
2022-12-25T05:06:04.037Z,11.84
2022-12-25T05:09:04.140Z,11.84
2022-12-25T05:12:03.582Z,11.85
2022-12-25T05:14:03.713Z,11.84
2022-12-25T05:17:03.676Z,11.84
2022-12-25T05:20:03.615Z,11.84
2022-12-25T05:22:03.786Z,11.84
2022-12-25T05:25:03.603Z,11.84
2022-12-25T05:27:03.702Z,11.85
2022-12-25T05:30:03.982Z,11.85
2022-12-25T05:33:03.835Z,11.84
2022-12-25T05:35:03.999Z,11.85
2022-12-25T05:38:04.478Z,11.86
2022-12-25T05:41:03.674Z,11.84
2022-12-25T05:43:04.245Z,11.83
2022-12-25T05:46:03.626Z,11.82
2022-12-25T05:49:03.636Z,11.88
2022-12-25T05:51:03.730Z,11.92
2022-12-25T05:54:04.498Z,12
2022-12-25T05:57:03.662Z,12.03
2022-12-25T05:59:03.706Z,12.06
2022-12-25T06:02:04.359Z,12.07
2022-12-25T06:05:03.631Z,12.07
2022-12-25T06:07:03.663Z,12.08
2022-12-25T06:10:03.753Z,12.08
2022-12-25T06:13:04.566Z,12.08
2022-12-25T06:16:03.677Z,12.07
2022-12-25T06:19:03.623Z,12.06
2022-12-25T06:22:04.346Z,12.05
2022-12-25T06:25:03.715Z,12.04
2022-12-25T06:28:03.656Z,12.02
2022-12-25T06:31:03.735Z,12.02
2022-12-25T06:34:03.617Z,12.02
2022-12-25T06:36:03.616Z,12.01
2022-12-25T06:38:04.157Z,12
2022-12-25T06:41:03.740Z,12
2022-12-25T06:43:05.391Z,12
2022-12-25T06:46:03.870Z,12
2022-12-25T06:49:03.593Z,12
2022-12-25T06:51:03.787Z,11.99
2022-12-25T06:53:04.114Z,11.99
2022-12-25T06:56:04.438Z,11.99
2022-12-25T06:59:03.571Z,11.99
2022-12-25T07:01:03.620Z,11.98
2022-12-25T07:04:03.631Z,11.98
2022-12-25T07:06:03.611Z,11.98
2022-12-25T07:10:02.745Z,11.98
2022-12-25T07:12:10.288Z,11.97
2022-12-25T07:15:03.577Z,11.97
2022-12-25T07:17:04.248Z,11.97
2022-12-25T07:20:03.571Z,11.97
2022-12-25T07:22:03.622Z,11.96
2022-12-25T07:24:04.207Z,11.96
2022-12-25T07:27:03.596Z,11.95
2022-12-25T07:29:03.593Z,11.96
2022-12-25T07:32:03.698Z,11.95
2022-12-25T07:34:10.561Z,11.93
2022-12-25T07:36:17.499Z,11.91
2022-12-25T07:40:03.563Z,11.91
2022-12-25T07:42:03.599Z,11.91
2022-12-25T07:44:03.680Z,11.91
2022-12-25T07:48:05.758Z,11.91
2022-12-25T07:50:03.604Z,11.91
2022-12-25T07:52:04.126Z,11.92
2022-12-25T07:56:03.638Z,11.9
2022-12-25T07:59:03.638Z,11.9
2022-12-25T08:02:03.870Z,11.9
2022-12-25T08:04:04.673Z,11.9
2022-12-25T08:07:10.493Z,11.9
2022-12-25T08:10:03.719Z,11.9
2022-12-25T08:13:06.530Z,11.9
2022-12-25T08:15:03.855Z,11.9
2022-12-25T08:18:03.605Z,11.89
2022-12-25T08:21:03.580Z,11.89
2022-12-25T08:23:03.603Z,11.89
2022-12-25T08:25:04.147Z,11.9
2022-12-25T08:28:04.300Z,11.9
2022-12-25T08:31:03.644Z,11.9
2022-12-25T08:34:03.735Z,11.9
2022-12-25T08:37:03.615Z,11.9
2022-12-25T08:39:04.415Z,11.9
2022-12-25T08:43:03.670Z,11.91
2022-12-25T08:47:42.366Z,11.91
2022-12-25T08:49:10.325Z,11.92
2022-12-25T08:52:04.144Z,11.9
2022-12-25T08:55:03.620Z,11.87
2022-12-25T08:59:02.687Z,11.91
2022-12-25T09:01:10.714Z,11.97
2022-12-25T09:04:17.526Z,12.08
2022-12-25T09:07:10.693Z,12.13
2022-12-25T09:10:17.010Z,12.16
2022-12-25T09:13:10.349Z,12.19
2022-12-25T09:16:03.680Z,12.22
2022-12-25T09:18:03.631Z,12.23
2022-12-25T09:20:04.390Z,12.24
2022-12-25T09:23:06.107Z,12.24
2022-12-25T09:25:03.665Z,12.25
2022-12-25T09:27:04.481Z,12.24
2022-12-25T09:30:04.464Z,12.25
2022-12-25T09:35:03.612Z,12.28
2022-12-25T09:37:03.644Z,12.28
2022-12-25T09:40:02.696Z,12.29
2022-12-25T09:42:10.219Z,12.3
2022-12-25T09:44:16.777Z,12.3
2022-12-25T09:47:16.774Z,12.3
2022-12-25T09:50:03.616Z,12.3
2022-12-25T09:52:03.664Z,12.29
2022-12-25T09:54:03.760Z,12.27
2022-12-25T09:57:03.623Z,12.29
2022-12-25T09:59:03.609Z,12.28
2022-12-25T10:02:04.011Z,12.3
2022-12-25T10:05:04.522Z,12.32
2022-12-25T10:08:03.631Z,12.33
2022-12-25T10:11:04.100Z,12.36
2022-12-25T10:13:04.407Z,12.37
2022-12-25T10:15:04.348Z,12.38
2022-12-25T10:19:03.608Z,12.39
2022-12-25T10:21:13.140Z,12.39
2022-12-25T10:24:04.224Z,12.42
2022-12-25T10:28:03.737Z,12.44
2022-12-25T10:33:15.208Z,12.46
2022-12-25T10:36:03.653Z,12.47
2022-12-25T10:38:03.679Z,12.46
2022-12-25T10:41:16.967Z,12.47
2022-12-25T10:44:04.936Z,12.5
2022-12-25T10:47:03.637Z,12.52
2022-12-25T10:50:16.761Z,12.55
2022-12-25T10:52:16.788Z,12.55
2022-12-25T10:55:03.624Z,12.54
2022-12-25T10:57:03.889Z,12.56
2022-12-25T10:59:04.103Z,12.58
2022-12-25T11:01:17.020Z,12.61
2022-12-25T11:04:03.802Z,12.61
2022-12-25T11:06:03.729Z,12.63
2022-12-25T11:09:03.647Z,12.63
2022-12-25T11:12:02.655Z,12.64
2022-12-25T11:14:10.235Z,12.65
2022-12-25T11:18:07.351Z,12.66
2022-12-25T11:20:07.368Z,12.68
2022-12-25T11:23:07.390Z,12.72
2022-12-25T11:26:07.408Z,12.74
2022-12-25T11:28:17.672Z,12.75
2022-12-25T11:32:07.359Z,12.78
2022-12-25T11:34:07.452Z,12.8
2022-12-25T11:38:07.381Z,12.82
2022-12-25T11:40:29.610Z,12.85
2022-12-25T11:43:17.665Z,12.91
2022-12-25T11:46:07.388Z,12.97
2022-12-25T11:49:07.358Z,13.04
2022-12-25T11:51:17.719Z,13.07
2022-12-25T11:54:07.377Z,13.14
2022-12-25T11:56:07.442Z,13.18
2022-12-25T11:59:07.399Z,13.23
2022-12-25T12:01:17.753Z,13.29
2022-12-25T12:04:07.396Z,13.4
2022-12-25T12:07:07.336Z,13.52
2022-12-25T12:09:07.403Z,13.6
2022-12-25T12:11:17.657Z,13.72
2022-12-25T12:14:07.385Z,13.9
2022-12-25T12:17:07.341Z,14.08
2022-12-25T12:19:07.393Z,14.24
2022-12-25T12:21:17.632Z,14.36
2022-12-25T12:24:07.407Z,14.53
2022-12-25T12:26:07.342Z,14.62
2022-12-25T12:28:07.408Z,14.72
2022-12-25T12:30:17.700Z,14.8
2022-12-25T12:33:07.382Z,14.94
2022-12-25T12:36:02.191Z,15.01
2022-12-25T12:38:17.675Z,15.17
2022-12-25T12:41:07.370Z,15.29
2022-12-25T12:43:07.368Z,15.4
2022-12-25T12:45:07.427Z,15.53
2022-12-25T12:47:17.654Z,15.64
2022-12-25T12:50:07.379Z,15.82
2022-12-25T12:53:07.355Z,15.92
2022-12-25T12:55:07.416Z,16.09
2022-12-25T12:57:07.422Z,16.12
2022-12-25T12:59:07.411Z,16.18
2022-12-25T13:02:07.504Z,16.21
2022-12-25T13:04:07.473Z,16.25
2022-12-25T13:07:07.347Z,16.32
2022-12-25T13:09:07.354Z,16.42
2022-12-25T13:11:07.721Z,16.48
2022-12-25T13:14:07.379Z,16.54
2022-12-25T13:16:07.438Z,16.59
2022-12-25T13:18:17.712Z,16.79
2022-12-25T13:20:17.713Z,16.87
2022-12-25T13:22:27.943Z,16.98
2022-12-25T13:25:17.635Z,16.95
2022-12-25T13:28:07.393Z,16.87
2022-12-25T13:32:07.468Z,16.76
2022-12-25T13:34:07.401Z,16.64
2022-12-25T13:36:17.907Z,16.52
2022-12-25T13:39:07.394Z,16.29
2022-12-25T13:42:07.433Z,16.12
2022-12-25T13:44:07.403Z,16.01
2022-12-25T13:47:17.649Z,15.91
2022-12-25T13:50:15.695Z,15.78
2022-12-25T13:52:15.761Z,15.74
2022-12-25T13:54:15.784Z,15.66
2022-12-25T13:58:15.685Z,15.44
2022-12-25T14:00:52.945Z,15.34
2022-12-25T14:03:23.079Z,15.25
2022-12-25T14:05:39.670Z,15.18
2022-12-25T14:08:37.944Z,15.14
2022-12-25T14:10:47.633Z,15.18
2022-12-25T14:13:34.366Z,15.33
2022-12-25T14:15:46.100Z,15.46
2022-12-25T14:17:59.831Z,15.56
2022-12-25T14:20:15.747Z,15.65
2022-12-25T14:23:34.205Z,15.67
2022-12-25T14:26:02.451Z,15.64
2022-12-25T14:28:30.630Z,15.64
2022-12-25T14:31:15.781Z,15.56
2022-12-25T14:34:15.685Z,15.52
2022-12-25T14:37:15.717Z,15.48
2022-12-25T14:39:15.711Z,15.43
2022-12-25T14:41:17.734Z,15.39
2022-12-25T14:44:15.695Z,15.31
2022-12-25T14:46:15.857Z,15.24
2022-12-25T14:48:48.319Z,15.16
2022-12-25T14:51:16.547Z,15.11
2022-12-25T14:53:46.814Z,15.03
2022-12-25T14:56:15.771Z,14.97
2022-12-25T14:58:15.705Z,14.94
2022-12-25T15:01:05.664Z,14.89
2022-12-25T15:03:15.849Z,14.81
2022-12-25T15:06:15.921Z,14.74
2022-12-25T15:09:15.730Z,14.67
2022-12-25T15:12:15.724Z,14.61
2022-12-25T15:14:15.771Z,14.58
2022-12-25T15:16:52.808Z,14.54
2022-12-25T15:19:02.485Z,14.51
2022-12-25T15:21:30.659Z,14.5
2022-12-25T15:24:15.782Z,14.45
2022-12-25T15:28:15.711Z,14.37
2022-12-25T15:30:15.736Z,14.33
2022-12-25T15:32:15.763Z,14.3
2022-12-25T15:35:15.739Z,14.26
2022-12-25T15:38:15.716Z,14.22
2022-12-25T15:40:16.220Z,14.2
2022-12-25T15:42:34.283Z,14.18
2022-12-25T15:45:02.514Z,14.15
2022-12-25T15:47:30.674Z,14.1
2022-12-25T15:50:15.712Z,14.05
2022-12-25T15:52:15.690Z,14.02
2022-12-25T15:55:15.735Z,14
2022-12-25T15:57:48.353Z,13.99
2022-12-25T16:00:35.057Z,13.97
2022-12-25T16:03:05.515Z,13.99
2022-12-25T16:05:15.708Z,13.98
2022-12-25T16:08:15.741Z,13.95
2022-12-25T16:12:15.720Z,13.9
2022-12-25T16:14:48.362Z,13.88
2022-12-25T16:17:16.562Z,13.87
2022-12-25T16:19:46.826Z,13.82
2022-12-25T16:22:15.727Z,13.79
2022-12-25T16:25:22.603Z,13.78
2022-12-25T16:28:34.230Z,13.76
2022-12-25T16:30:45.982Z,13.74
2022-12-25T16:33:14.195Z,13.72
2022-12-25T16:35:25.891Z,13.7
2022-12-25T16:37:35.550Z,13.68
2022-12-25T16:40:15.740Z,13.65
2022-12-25T16:42:48.383Z,13.66
2022-12-25T16:45:16.531Z,13.65
2022-12-25T16:47:46.820Z,13.66
2022-12-25T16:50:15.760Z,13.64
2022-12-25T16:52:15.767Z,13.62
2022-12-25T16:55:15.746Z,13.61
2022-12-25T16:57:15.722Z,13.59
2022-12-25T17:00:15.780Z,13.54
2022-12-25T17:04:15.740Z,13.52
2022-12-25T17:06:15.729Z,13.51
2022-12-25T17:09:15.735Z,13.5
2022-12-25T17:12:15.817Z,13.49
2022-12-25T17:15:15.707Z,13.47
2022-12-25T17:18:15.748Z,13.47
2022-12-25T17:20:15.790Z,13.43
2022-12-25T17:23:15.728Z,13.43
2022-12-25T17:25:15.714Z,13.43
2022-12-25T17:28:44.310Z,13.41
2022-12-25T17:33:43.013Z,13.4
2022-12-25T17:36:31.515Z,13.36
2022-12-25T17:39:15.742Z,13.35
2022-12-25T17:41:15.783Z,13.34
2022-12-25T17:44:15.763Z,13.33
2022-12-25T17:47:15.770Z,13.3
2022-12-25T17:50:15.713Z,13.28
2022-12-25T17:53:34.272Z,13.23
2022-12-25T17:56:20.988Z,13.21
2022-12-25T17:58:51.242Z,13.19
2022-12-25T18:01:15.899Z,13.09
2022-12-25T18:04:15.845Z,13.02
2022-12-25T18:06:15.742Z,13.03
2022-12-25T18:08:52.787Z,13.06
2022-12-25T18:11:23.077Z,13.1
2022-12-25T18:13:53.313Z,13.09
2022-12-25T18:16:40.020Z,13.11
2022-12-25T18:18:52.443Z,13.14
2022-12-25T18:21:21.959Z,13.08
2022-12-25T18:24:15.759Z,13.26
2022-12-25T18:27:15.708Z,13.28
2022-12-25T18:29:15.803Z,13.3
2022-12-25T18:32:15.765Z,13.29
2022-12-25T18:35:15.710Z,13.29
2022-12-25T18:38:15.776Z,13.29
2022-12-25T18:40:48.363Z,13.29
2022-12-25T18:43:16.602Z,13.29
2022-12-25T18:45:46.833Z,13.25
2022-12-25T18:48:15.750Z,13.25
2022-12-25T18:51:15.733Z,13.22
2022-12-25T18:53:15.762Z,13.19
2022-12-25T18:56:15.768Z,13.16
2022-12-25T18:59:15.753Z,13.14
2022-12-25T19:02:15.830Z,13.13
2022-12-25T19:04:15.722Z,13.11
2022-12-25T19:07:15.731Z,13.09
2022-12-25T19:09:15.755Z,13.11
2022-12-25T19:12:15.752Z,13.1
2022-12-25T19:15:15.762Z,13.12
2022-12-25T19:18:15.731Z,13.16
2022-12-25T19:21:15.822Z,13.2
2022-12-25T19:24:15.748Z,13.22
2022-12-25T19:26:15.764Z,13.23
2022-12-25T19:30:15.791Z,13.25
2022-12-25T19:34:15.791Z,13.27
2022-12-25T19:36:32.109Z,13.29
2022-12-25T19:39:02.327Z,13.29
2022-12-25T19:41:49.088Z,13.29
2022-12-25T19:44:39.893Z,13.3
2022-12-25T19:47:15.768Z,13.29
2022-12-25T19:49:15.776Z,13.32
2022-12-25T19:52:15.712Z,13.33
2022-12-25T19:54:15.780Z,13.32
2022-12-25T19:57:15.759Z,13.34
2022-12-25T20:00:15.795Z,13.33
2022-12-25T20:03:15.892Z,13.33
2022-12-25T20:05:15.773Z,13.33
2022-12-25T20:08:15.752Z,13.31
2022-12-25T20:11:15.742Z,13.32
2022-12-25T20:13:15.753Z,13.33
2022-12-25T20:15:15.770Z,13.33
2022-12-25T20:19:15.776Z,13.34
2022-12-25T20:21:15.770Z,13.33
2022-12-25T20:24:15.733Z,13.34
2022-12-25T20:26:15.756Z,13.35
2022-12-25T20:28:15.769Z,13.35
2022-12-25T20:31:15.762Z,13.37
2022-12-25T20:34:15.816Z,13.39
2022-12-25T20:36:42.209Z,13.38
2022-12-25T20:39:15.771Z,13.38
2022-12-25T20:41:28.277Z,13.4
2022-12-25T20:43:15.856Z,13.4
2022-12-25T20:46:15.817Z,13.41
2022-12-25T20:48:15.713Z,13.41
2022-12-25T20:51:15.855Z,13.39
2022-12-25T20:54:15.886Z,13.42
2022-12-25T20:57:15.746Z,13.45
2022-12-25T21:00:15.796Z,13.47
2022-12-25T21:02:35.318Z,13.47
2022-12-25T21:05:15.749Z,13.47
2022-12-25T21:07:15.779Z,13.48
2022-12-25T21:09:48.398Z,13.5
2022-12-25T21:12:16.595Z,13.51
2022-12-25T21:14:48.876Z,13.56
2022-12-25T21:17:15.859Z,13.57
2022-12-25T21:20:15.717Z,13.59
2022-12-25T21:22:15.781Z,13.6
2022-12-25T21:26:15.861Z,13.63
2022-12-25T21:28:48.471Z,13.63
2022-12-25T21:31:16.638Z,13.64
2022-12-25T21:33:44.753Z,13.62
2022-12-25T21:37:27.092Z,13.63
2022-12-25T21:39:57.335Z,13.64
2022-12-25T21:42:09.055Z,13.63
2022-12-25T21:44:15.730Z,13.65
2022-12-25T21:46:15.831Z,13.65
2022-12-25T21:48:15.750Z,13.64
2022-12-25T21:51:15.770Z,13.64
2022-12-25T21:53:15.841Z,13.66
2022-12-25T21:55:34.271Z,13.66
2022-12-25T21:58:18.973Z,13.64
2022-12-25T22:00:49.196Z,13.65
2022-12-25T22:03:38.053Z,13.65
2022-12-25T22:07:07.924Z,13.67
2022-12-25T22:09:36.093Z,13.68
2022-12-25T22:12:28.700Z,13.7
2022-12-25T22:14:50.623Z,13.7
2022-12-25T22:16:50.362Z,13.72
2022-12-25T22:19:18.625Z,13.7
2022-12-25T22:21:34.371Z,13.7
2022-12-25T22:23:48.042Z,13.7
2022-12-25T22:26:20.747Z,13.71
2022-12-25T22:28:44.475Z,13.7
2022-12-25T22:31:15.795Z,13.7
2022-12-25T22:33:15.754Z,13.69
2022-12-25T22:35:15.805Z,13.69
2022-12-25T22:37:34.277Z,13.68
2022-12-25T22:40:34.294Z,13.67
2022-12-25T22:42:34.303Z,13.66
2022-12-25T22:45:02.492Z,13.66
2022-12-25T22:47:30.693Z,13.67
2022-12-25T22:50:15.761Z,13.67
2022-12-25T22:52:15.776Z,13.67
2022-12-25T22:55:15.737Z,13.65
2022-12-25T22:57:15.824Z,13.63
2022-12-25T23:00:15.747Z,13.64
2022-12-25T23:02:34.436Z,13.64
2022-12-25T23:05:04.564Z,13.64
2022-12-25T23:07:16.312Z,13.63
2022-12-25T23:09:44.539Z,13.64
2022-12-25T23:12:14.729Z,13.63
2022-12-25T23:14:24.381Z,13.63
2022-12-25T23:18:15.808Z,13.62
2022-12-25T23:22:15.748Z,13.61
2022-12-25T23:24:15.775Z,13.59
2022-12-25T23:27:15.757Z,13.59
2022-12-25T23:30:15.797Z,13.57
2022-12-25T23:33:15.775Z,13.57
2022-12-25T23:35:48.417Z,13.56
2022-12-25T23:38:00.152Z,13.56
2022-12-25T23:40:11.863Z,13.55
2022-12-25T23:42:40.049Z,13.54
2022-12-25T23:45:26.793Z,13.53
2022-12-25T23:47:38.523Z,13.53
2022-12-25T23:50:15.784Z,13.52
2022-12-25T23:56:15.757Z,13.52
2022-12-25T23:58:15.809Z,13.52
